createdAt,value
2022-08-10T00:01:35.708Z,4.10
2022-08-10T00:04:41.339Z,4.43
2022-08-10T00:07:46.871Z,4.20
2022-08-10T00:10:54.485Z,3.73
2022-08-10T00:13:59.967Z,4.43
2022-08-10T00:17:05.879Z,4.23
2022-08-10T00:20:12.037Z,4.30
2022-08-10T00:23:18.255Z,4.70
2022-08-10T00:26:25.618Z,5.00
2022-08-10T00:29:31.467Z,4.30
2022-08-10T00:32:40.083Z,4.30
2022-08-10T00:35:45.831Z,4.70
2022-08-10T00:38:51.314Z,4.57
2022-08-10T00:42:07.380Z,4.40
2022-08-10T00:45:13.493Z,4.37
2022-08-10T00:48:18.953Z,4.03
2022-08-10T00:51:24.381Z,4.70
2022-08-10T00:54:48.552Z,4.00
2022-08-10T00:57:54.951Z,3.63
2022-08-10T01:01:03.023Z,4.23
2022-08-10T01:04:58.579Z,4.07
2022-08-10T01:07:34.632Z,3.80
2022-08-10T01:10:40.316Z,4.57
2022-08-10T01:13:45.782Z,4.50
2022-08-10T01:16:52.082Z,3.70
2022-08-10T01:19:58.577Z,3.87
2022-08-10T01:23:04.598Z,4.00
2022-08-10T01:26:11.800Z,3.87
2022-08-10T01:29:36.167Z,4.60
2022-08-10T01:32:41.900Z,5.17
2022-08-10T01:36:02.800Z,3.73
2022-08-10T01:39:08.137Z,3.83
2022-08-10T01:42:13.775Z,3.80
2022-08-10T01:45:19.277Z,4.40
2022-08-10T01:48:32.014Z,4.70
2022-08-10T01:51:44.481Z,4.47
2022-08-10T01:54:49.945Z,4.30
2022-08-10T01:57:58.811Z,4.40
2022-08-10T02:01:05.541Z,4.40
2022-08-10T02:04:10.942Z,4.33
2022-08-10T02:07:16.806Z,4.63
2022-08-10T02:10:22.721Z,4.03
2022-08-10T02:13:28.101Z,3.60
2022-08-10T02:16:33.962Z,4.40
2022-08-10T02:19:40.159Z,4.23
2022-08-10T02:22:46.265Z,4.47
2022-08-10T02:25:52.192Z,3.90
2022-08-10T02:28:58.142Z,3.87
2022-08-10T02:35:30.598Z,3.90
2022-08-10T02:38:59.863Z,3.67
2022-08-10T02:45:01.235Z,3.57
2022-08-10T02:45:32.245Z,3.60
2022-08-10T02:48:38.141Z,3.67
2022-08-10T02:52:06.465Z,4.20
2022-08-10T02:55:18.196Z,3.63
2022-08-10T02:58:24.299Z,4.07
2022-08-10T03:01:30.083Z,4.00
2022-08-10T03:04:55.442Z,4.00
2022-08-10T03:08:01.145Z,4.00
2022-08-10T03:11:13.429Z,3.83
2022-08-10T03:14:18.780Z,4.10
2022-08-10T03:17:24.281Z,4.10
2022-08-10T03:20:33.659Z,3.67
2022-08-10T03:23:44.247Z,3.93
2022-08-10T03:26:49.884Z,3.37
2022-08-10T03:30:31.891Z,4.00
2022-08-10T03:33:21.380Z,3.80
2022-08-10T03:36:43.672Z,4.13
2022-08-10T03:39:51.569Z,3.60
2022-08-10T03:42:57.139Z,3.60
2022-08-10T03:46:03.235Z,3.40
2022-08-10T03:49:09.016Z,3.67
2022-08-10T03:52:14.298Z,3.70
2022-08-10T03:56:28.812Z,3.40
2022-08-10T03:58:48.381Z,3.07
2022-08-10T04:02:44.211Z,3.20
2022-08-10T04:05:19.709Z,3.60
2022-08-10T04:08:25.209Z,3.43
2022-08-10T04:11:30.921Z,3.90
2022-08-10T04:14:47.576Z,3.97
2022-08-10T04:18:05.685Z,3.10
2022-08-10T04:21:11.749Z,3.30
2022-08-10T04:24:24.789Z,3.53
2022-08-10T04:27:35.328Z,3.43
2022-08-10T04:34:08.546Z,3.63
2022-08-10T04:37:14.475Z,4.30
2022-08-10T04:40:38.866Z,3.33
2022-08-10T04:43:44.354Z,3.40
2022-08-10T04:46:59.509Z,3.13
2022-08-10T04:50:05.418Z,2.67
2022-08-10T04:53:11.199Z,2.70
2022-08-10T04:56:32.080Z,3.37
2022-08-10T04:59:37.677Z,2.40
2022-08-10T05:02:48.032Z,3.30
2022-08-10T05:05:55.181Z,2.77
2022-08-10T05:09:03.642Z,3.17
2022-08-10T05:12:15.508Z,3.10
2022-08-10T05:15:23.943Z,2.90
2022-08-10T05:18:29.768Z,3.40
2022-08-10T05:22:01.427Z,3.20
2022-08-10T05:25:00.898Z,3.10
2022-08-10T05:28:09.773Z,3.50
2022-08-10T05:31:23.531Z,3.30
2022-08-10T05:34:30.350Z,4.27
2022-08-10T05:38:08.860Z,3.90
2022-08-10T05:41:01.412Z,3.93
2022-08-10T05:44:06.893Z,3.43
2022-08-10T05:47:13.122Z,3.30
2022-08-10T05:50:19.482Z,3.77
2022-08-10T05:53:59.360Z,2.57
2022-08-10T05:56:54.105Z,4.10
2022-08-10T06:00:11.249Z,3.13
2022-08-10T06:03:31.035Z,3.40
2022-08-10T06:06:40.532Z,3.90
2022-08-10T06:09:59.819Z,3.60
2022-08-10T06:13:29.677Z,4.43
2022-08-10T06:16:37.033Z,3.40
2022-08-10T06:19:43.041Z,3.20
2022-08-10T06:22:48.574Z,3.47
2022-08-10T06:26:11.332Z,3.13
2022-08-10T06:29:26.405Z,3.30
2022-08-10T06:32:31.900Z,3.53
2022-08-10T06:35:37.673Z,2.87
2022-08-10T06:38:43.265Z,3.77
2022-08-10T06:42:14.349Z,3.50
2022-08-10T06:45:14.679Z,3.60
2022-08-10T06:48:20.139Z,3.40
2022-08-10T06:51:25.440Z,3.40
2022-08-10T06:54:30.916Z,3.37
2022-08-10T06:57:36.029Z,3.20
2022-08-10T07:00:41.654Z,3.43
2022-08-10T07:03:47.362Z,3.03
2022-08-10T07:06:52.689Z,2.93
2022-08-10T07:10:01.661Z,3.43
2022-08-10T07:13:07.760Z,2.60
2022-08-10T07:16:13.471Z,2.60
2022-08-10T07:19:18.941Z,3.07
2022-08-10T07:23:08.307Z,3.10
2022-08-10T07:25:50.231Z,3.10
2022-08-10T07:28:55.869Z,2.30
2022-08-10T07:32:08.717Z,2.70
2022-08-10T07:35:14.277Z,2.07
2022-08-10T07:38:19.920Z,2.17
2022-08-10T07:41:25.525Z,2.07
2022-08-10T07:44:31.976Z,2.10
2022-08-10T07:47:53.443Z,1.93
2022-08-10T07:51:00.293Z,2.03
2022-08-10T07:54:15.956Z,1.87
2022-08-10T07:57:30.661Z,1.90
2022-08-10T08:00:36.734Z,1.80
2022-08-10T08:07:09.981Z,2.00
2022-08-10T08:10:16.264Z,2.37
2022-08-10T08:13:21.503Z,1.80
2022-08-10T08:16:27.131Z,1.87
2022-08-10T08:19:45.762Z,2.10
2022-08-10T08:24:04.730Z,1.80
2022-08-10T08:26:17.768Z,1.80
2022-08-10T08:29:23.409Z,1.70
2022-08-10T08:32:30.018Z,1.63
2022-08-10T08:35:35.853Z,2.10
2022-08-10T08:38:54.352Z,1.60
2022-08-10T08:42:00.065Z,1.63
2022-08-10T08:45:06.091Z,1.60
2022-08-10T08:48:11.592Z,1.53
2022-08-10T08:52:07.955Z,1.33
2022-08-10T08:54:42.958Z,1.37
2022-08-10T08:57:49.284Z,1.40
2022-08-10T09:00:56.548Z,1.30
2022-08-10T09:04:01.974Z,1.10
2022-08-10T09:08:00.466Z,1.20
2022-08-10T09:10:37.517Z,1.33
2022-08-10T09:13:43.313Z,1.20
2022-08-10T09:16:49.228Z,1.40
2022-08-10T09:19:57.221Z,1.20
2022-08-10T09:23:03.417Z,1.20
2022-08-10T09:26:12.791Z,1.33
2022-08-10T09:29:18.558Z,1.10
2022-08-10T09:36:16.062Z,1.20
2022-08-10T09:36:20.388Z,1.20
2022-08-10T09:40:12.753Z,1.20
2022-08-10T09:42:41.547Z,1.20
2022-08-10T09:45:47.121Z,1.27
2022-08-10T09:48:53.166Z,1.17
2022-08-10T09:51:58.913Z,1.30
2022-08-10T09:55:04.895Z,1.00
2022-08-10T09:58:10.321Z,1.17
2022-08-10T10:01:22.420Z,1.20
2022-08-10T10:04:41.428Z,1.00
2022-08-10T10:07:46.884Z,1.20
2022-08-10T10:10:52.465Z,0.90
2022-08-10T10:14:12.440Z,1.10
2022-08-10T10:17:18.183Z,1.27
2022-08-10T10:20:23.925Z,0.90
2022-08-10T10:23:32.637Z,1.20
2022-08-10T10:26:38.072Z,0.90
2022-08-10T10:29:58.671Z,1.20
2022-08-10T10:33:14.583Z,1.30
2022-08-10T10:36:20.125Z,1.00
2022-08-10T10:39:25.923Z,1.10
2022-08-10T10:42:46.881Z,1.10
2022-08-10T10:49:12.934Z,0.97
2022-08-10T10:52:25.381Z,1.10
2022-08-10T10:55:31.449Z,1.10
2022-08-10T10:58:37.443Z,1.03
2022-08-10T11:01:43.048Z,1.10
2022-08-10T11:04:48.582Z,1.37
2022-08-10T11:08:14.515Z,1.10
2022-08-10T11:12:00.373Z,1.00
2022-08-10T11:14:46.641Z,1.30
2022-08-10T11:17:52.059Z,1.33
2022-08-10T11:20:58.052Z,1.27
2022-08-10T11:24:47.530Z,1.50
2022-08-10T11:27:29.300Z,1.07
2022-08-10T11:30:35.048Z,1.17
2022-08-10T11:34:04.170Z,1.20
2022-08-10T11:37:06.621Z,0.97
2022-08-10T11:40:12.250Z,0.90
2022-08-10T11:43:19.227Z,1.07
2022-08-10T11:46:28.756Z,1.10
2022-08-10T11:49:34.557Z,0.90
2022-08-10T11:52:46.715Z,1.20
2022-08-10T11:55:52.901Z,1.30
2022-08-10T11:59:17.303Z,1.10
2022-08-10T12:02:23.027Z,1.40
2022-08-10T12:05:46.414Z,1.00
2022-08-10T12:10:11.243Z,1.00
2022-08-10T12:12:19.866Z,1.00
2022-08-10T12:15:25.737Z,1.20
2022-08-10T12:18:31.456Z,1.10
2022-08-10T12:21:37.278Z,0.80
2022-08-10T12:24:48.857Z,1.13
2022-08-10T12:27:55.641Z,1.27
2022-08-10T12:31:02.053Z,1.30
2022-08-10T12:34:08.370Z,1.10
2022-08-10T12:37:13.971Z,1.03
2022-08-10T12:40:41.487Z,1.03
2022-08-10T12:44:05.488Z,1.30
2022-08-10T12:47:16.292Z,1.20
2022-08-10T12:50:33.118Z,0.97
2022-08-10T12:53:39.336Z,1.10
2022-08-10T12:56:44.729Z,1.20
2022-08-10T12:59:50.305Z,0.97
2022-08-10T13:02:55.549Z,1.53
2022-08-10T13:06:02.754Z,1.40
2022-08-10T13:09:13.100Z,1.10
2022-08-10T13:12:38.680Z,1.20
2022-08-10T13:15:50.689Z,1.10
2022-08-10T13:18:58.568Z,1.33
2022-08-10T13:22:04.211Z,1.20
2022-08-10T13:25:09.843Z,1.20
2022-08-10T13:28:37.573Z,1.10
2022-08-10T13:32:09.319Z,1.30
2022-08-10T13:35:06.971Z,1.23
2022-08-10T13:38:12.854Z,1.23
2022-08-10T13:41:19.128Z,1.43
2022-08-10T13:44:24.767Z,1.10
2022-08-10T13:47:30.370Z,1.30
2022-08-10T13:50:41.905Z,1.30
2022-08-10T13:53:47.690Z,1.23
2022-08-10T13:56:54.207Z,1.23
2022-08-10T14:00:35.420Z,1.20
2022-08-10T14:03:27.061Z,1.37
2022-08-10T14:06:33.327Z,1.30
2022-08-10T14:09:39.026Z,1.50
2022-08-10T14:12:56.699Z,1.43
2022-08-10T14:16:02.551Z,1.30
2022-08-10T14:19:10.020Z,1.10
2022-08-10T14:22:15.778Z,1.20
2022-08-10T14:25:25.236Z,1.30
2022-08-10T14:28:31.010Z,1.63
2022-08-10T14:31:36.293Z,1.20
2022-08-10T14:36:16.846Z,1.37
2022-08-10T14:38:07.429Z,1.40
2022-08-10T14:41:13.312Z,1.60
2022-08-10T14:44:58.731Z,1.63
2022-08-10T14:48:04.236Z,1.30
2022-08-10T14:51:12.822Z,1.20
2022-08-10T14:54:24.383Z,1.40
2022-08-10T14:58:18.904Z,1.47
2022-08-10T15:00:57.703Z,1.40
2022-08-10T15:04:03.512Z,1.40
2022-08-10T15:07:12.067Z,1.50
2022-08-10T15:10:18.900Z,1.10
2022-08-10T15:13:34.901Z,1.60
2022-08-10T15:16:41.216Z,1.60
2022-08-10T15:20:04.548Z,1.80
2022-08-10T15:23:31.302Z,1.43
2022-08-10T15:26:38.008Z,1.60
2022-08-10T15:30:03.094Z,1.60
2022-08-10T15:37:40.133Z,1.60
2022-08-10T15:40:50.560Z,1.70
2022-08-10T15:43:57.224Z,1.33
2022-08-10T15:47:06.068Z,1.70
2022-08-10T15:50:12.887Z,1.40
2022-08-10T15:53:18.111Z,1.35
2022-08-10T15:56:28.196Z,1.48
2022-08-10T15:59:34.038Z,1.55
2022-08-10T16:02:40.093Z,1.67
2022-08-10T16:06:02.245Z,1.80
2022-08-10T16:10:22.991Z,1.70
2022-08-10T16:12:34.521Z,1.58
2022-08-10T16:15:40.340Z,1.70
2022-08-10T16:18:45.720Z,2.05
2022-08-10T16:21:51.447Z,1.88
2022-08-10T16:24:56.945Z,1.42
2022-08-10T16:28:02.946Z,1.77
2022-08-10T16:31:09.218Z,1.50
2022-08-10T16:34:18.298Z,1.40
2022-08-10T16:37:23.752Z,1.60
2022-08-10T16:40:30.114Z,1.58
2022-08-10T16:43:37.204Z,1.70
2022-08-10T16:46:43.133Z,1.40
2022-08-10T16:49:51.877Z,1.52
2022-08-10T16:53:00.384Z,1.30
2022-08-10T16:56:06.046Z,1.80
2022-08-10T16:59:20.501Z,1.60
2022-08-10T17:02:26.651Z,2.20
2022-08-10T17:06:10.212Z,1.95
2022-08-10T17:09:17.035Z,1.60
2022-08-10T17:12:22.136Z,1.65
2022-08-10T17:15:30.951Z,6.88
2022-08-10T17:18:37.135Z,2.53
2022-08-10T17:21:51.044Z,1.65
2022-08-10T17:25:08.534Z,1.80
2022-08-10T17:28:22.283Z,1.95
2022-08-10T17:31:54.731Z,1.70
2022-08-10T17:35:12.029Z,1.90
2022-08-10T17:38:19.867Z,2.40
2022-08-10T17:41:25.491Z,1.87
2022-08-10T17:44:35.780Z,1.80
2022-08-10T17:47:41.503Z,1.70
2022-08-10T17:50:47.643Z,1.70
2022-08-10T17:53:53.733Z,1.85
2022-08-10T17:56:59.768Z,1.85
2022-08-10T18:00:05.028Z,1.73
2022-08-10T18:03:10.194Z,1.85
2022-08-10T18:06:29.036Z,2.33
2022-08-10T18:09:34.780Z,2.43
2022-08-10T18:12:40.644Z,1.73
2022-08-10T18:15:46.432Z,2.47
2022-08-10T18:18:58.481Z,1.50
2022-08-10T18:22:06.376Z,2.00
2022-08-10T18:25:12.090Z,2.73
2022-08-10T18:28:17.594Z,3.43
2022-08-10T18:31:28.131Z,2.10
2022-08-10T18:34:33.814Z,2.40
2022-08-10T18:37:40.284Z,2.33
2022-08-10T18:40:46.280Z,2.17
2022-08-10T18:44:10.013Z,2.47
2022-08-10T18:47:17.443Z,1.80
2022-08-10T18:50:24.315Z,2.20
2022-08-10T18:53:29.889Z,2.60
2022-08-10T18:56:35.078Z,1.97
2022-08-10T18:59:40.654Z,2.20
2022-08-10T19:03:05.857Z,1.53
2022-08-10T19:06:11.063Z,2.13
2022-08-10T19:09:47.337Z,2.40
2022-08-10T19:12:46.694Z,1.93
2022-08-10T19:15:54.639Z,1.80
2022-08-10T19:19:00.639Z,2.20
2022-08-10T19:22:05.786Z,1.93
2022-08-10T19:25:11.136Z,2.07
2022-08-10T19:28:16.884Z,2.27
2022-08-10T19:31:22.141Z,2.10
2022-08-10T19:34:28.207Z,2.10
2022-08-10T19:37:34.225Z,2.30
2022-08-10T19:40:44.279Z,2.70
2022-08-10T19:44:00.594Z,1.90
2022-08-10T19:47:07.436Z,1.80
2022-08-10T19:50:13.035Z,2.00
2022-08-10T19:53:19.066Z,1.90
2022-08-10T19:56:34.675Z,2.20
2022-08-10T20:00:16.275Z,2.00
2022-08-10T20:03:07.539Z,1.97
2022-08-10T20:06:20.588Z,1.90
2022-08-10T20:09:26.991Z,1.90
2022-08-10T20:12:32.485Z,1.90
2022-08-10T20:15:42.273Z,2.30
2022-08-10T20:18:47.908Z,2.20
2022-08-10T20:21:53.787Z,1.90
2022-08-10T20:24:40.150Z,1.70
2022-08-10T20:28:00.615Z,2.33
2022-08-10T20:31:06.593Z,2.00
2022-08-10T20:34:15.514Z,2.10
2022-08-10T20:38:03.175Z,2.20
2022-08-10T20:41:04.046Z,2.33
2022-08-10T20:44:23.270Z,2.10
2022-08-10T20:47:29.177Z,2.20
2022-08-10T20:50:34.657Z,2.00
2022-08-10T20:53:44.819Z,1.90
2022-08-10T20:57:00.485Z,2.40
2022-08-10T21:00:07.733Z,2.40
2022-08-10T21:03:22.059Z,1.83
2022-08-10T21:06:42.197Z,2.27
2022-08-10T21:09:49.002Z,2.70
2022-08-10T21:12:58.345Z,2.00
2022-08-10T21:16:03.694Z,2.00
2022-08-10T21:19:09.880Z,2.33
2022-08-10T21:22:21.296Z,2.13
2022-08-10T21:25:29.603Z,2.33
2022-08-10T21:28:38.396Z,2.10
2022-08-10T21:31:43.537Z,2.03
2022-08-10T21:34:54.453Z,1.97
2022-08-10T21:37:59.555Z,2.20
2022-08-10T21:41:18.679Z,2.60
2022-08-10T21:44:43.994Z,2.20
2022-08-10T21:48:17.130Z,2.30
2022-08-10T21:52:01.321Z,2.30
2022-08-10T21:55:25.137Z,2.30
2022-08-10T21:59:18.191Z,2.53
2022-08-10T22:02:50.505Z,2.50
2022-08-10T22:06:24.791Z,2.23
2022-08-10T22:09:49.712Z,2.27
2022-08-10T22:13:13.968Z,2.13
2022-08-10T22:16:37.470Z,2.20
2022-08-10T22:20:00.775Z,2.57
2022-08-10T22:23:23.952Z,2.30
2022-08-10T22:27:01.247Z,2.10
2022-08-10T22:30:28.230Z,2.30
2022-08-10T22:33:58.166Z,2.67
2022-08-10T22:37:21.090Z,2.40
2022-08-10T22:40:44.165Z,2.70
2022-08-10T22:44:07.501Z,2.50
2022-08-10T22:47:30.890Z,2.10
2022-08-10T22:50:48.009Z,2.50
2022-08-10T22:54:30.227Z,2.27
2022-08-10T22:57:54.986Z,2.70
2022-08-10T23:01:00.846Z,2.70
2022-08-10T23:04:06.541Z,2.50
2022-08-10T23:07:12.860Z,2.80
2022-08-10T23:10:18.317Z,2.40
2022-08-10T23:13:35.375Z,2.63
2022-08-10T23:16:59.829Z,2.00
2022-08-10T23:20:05.743Z,2.40
2022-08-10T23:23:11.148Z,2.60
2022-08-10T23:26:16.757Z,2.83
2022-08-10T23:29:23.266Z,2.50
2022-08-10T23:32:30.348Z,2.67
2022-08-10T23:36:13.110Z,2.30
2022-08-10T23:39:25.615Z,2.23
2022-08-10T23:42:31.036Z,2.27
2022-08-10T23:45:53.345Z,2.20
2022-08-10T23:48:59.828Z,2.07
2022-08-10T23:52:05.351Z,2.20
2022-08-10T23:55:10.447Z,2.07
2022-08-10T23:58:33.259Z,2.17
